sensor_id;sensor_type;location;lat;lon;timestamp;pressure;altitude;pressure_sealevel;temperature;humidity
1029;BME280;503;48.120;11.488;2022-11-18T00:01:12;93729.63;;;13.24;62.20
1029;BME280;503;48.120;11.488;2022-11-18T00:03:38;93721.13;;;13.19;62.40
1029;BME280;503;48.120;11.488;2022-11-18T00:06:03;93713.84;;;13.16;62.19
1029;BME280;503;48.120;11.488;2022-11-18T00:08:29;93713.88;;;13.19;62.41
1029;BME280;503;48.120;11.488;2022-11-18T00:10:55;93708.53;;;13.19;61.86
1029;BME280;503;48.120;11.488;2022-11-18T00:13:20;93701.66;;;13.18;61.69
1029;BME280;503;48.120;11.488;2022-11-18T00:16:06;93701.59;;;13.15;61.90
1029;BME280;503;48.120;11.488;2022-11-18T00:18:31;93701.19;;;13.13;61.83
1029;BME280;503;48.120;11.488;2022-11-18T00:21:01;93704.16;;;13.08;61.79
1029;BME280;503;48.120;11.488;2022-11-18T00:23:26;93700.34;;;13.09;61.89
1029;BME280;503;48.120;11.488;2022-11-18T00:25:52;93689.75;;;13.12;61.88
1029;BME280;503;48.120;11.488;2022-11-18T00:28:17;93691.97;;;13.10;61.91
1029;BME280;503;48.120;11.488;2022-11-18T00:30:42;93693.53;;;13.11;61.68
1029;BME280;503;48.120;11.488;2022-11-18T00:33:08;93687.84;;;13.13;61.94
1029;BME280;503;48.120;11.488;2022-11-18T00:35:33;93692.03;;;13.14;61.71
1029;BME280;503;48.120;11.488;2022-11-18T00:37:58;93691.63;;;13.12;61.57
1029;BME280;503;48.120;11.488;2022-11-18T00:40:23;93681.72;;;13.12;61.50
1029;BME280;503;48.120;11.488;2022-11-18T00:42:49;93687.06;;;13.12;61.47
1029;BME280;503;48.120;11.488;2022-11-18T00:45:15;93684.41;;;13.12;61.43
1029;BME280;503;48.120;11.488;2022-11-18T00:47:40;93682.09;;;13.11;61.54
1029;BME280;503;48.120;11.488;2022-11-18T00:50:05;93675.91;;;13.07;61.37
1029;BME280;503;48.120;11.488;2022-11-18T00:52:31;93681.63;;;13.05;61.53
1029;BME280;503;48.120;11.488;2022-11-18T00:54:56;93684.28;;;13.05;61.23
1029;BME280;503;48.120;11.488;2022-11-18T00:57:21;93690.81;;;13.08;61.58
1029;BME280;503;48.120;11.488;2022-11-18T00:59:47;93677.16;;;13.13;61.27
1029;BME280;503;48.120;11.488;2022-11-18T01:02:12;93685.94;;;13.13;61.22
1029;BME280;503;48.120;11.488;2022-11-18T01:04:37;93672.97;;;13.12;61.40
1029;BME280;503;48.120;11.488;2022-11-18T01:07:02;93672.59;;;13.13;61.25
1029;BME280;503;48.120;11.488;2022-11-18T01:09:28;93667.25;;;13.13;61.47
1029;BME280;503;48.120;11.488;2022-11-18T01:11:53;93677.09;;;13.09;61.50
1029;BME280;503;48.120;11.488;2022-11-18T01:14:37;93669.09;;;13.09;61.51
1029;BME280;503;48.120;11.488;2022-11-18T01:17:02;93663.34;;;13.07;61.71
1029;BME280;503;48.120;11.488;2022-11-18T01:19:28;93660.25;;;13.05;61.75
1029;BME280;503;48.120;11.488;2022-11-18T01:21:53;93659.47;;;13.05;61.73
1029;BME280;503;48.120;11.488;2022-11-18T01:24:20;93653.72;;;13.02;61.91
1029;BME280;503;48.120;11.488;2022-11-18T01:26:45;93657.94;;;13.04;62.00
1029;BME280;503;48.120;11.488;2022-11-18T01:29:10;93645.72;;;13.02;62.16
1029;BME280;503;48.120;11.488;2022-11-18T01:31:36;93645.66;;;12.99;62.45
1029;BME280;503;48.120;11.488;2022-11-18T01:34:01;93640.25;;;12.95;62.45
1029;BME280;503;48.120;11.488;2022-11-18T01:36:27;93639.00;;;12.89;63.08
1029;BME280;503;48.120;11.488;2022-11-18T01:38:53;93638.31;;;12.73;62.69
1029;BME280;503;48.120;11.488;2022-11-18T01:41:20;93640.03;;;12.62;63.17
1029;BME280;503;48.120;11.488;2022-11-18T01:46:14;93649.44;;;12.56;64.06
1029;BME280;503;48.120;11.488;2022-11-18T01:48:40;93652.56;;;11.68;66.12
1029;BME280;503;48.120;11.488;2022-11-18T01:51:08;93662.28;;;11.44;67.36
1029;BME280;503;48.120;11.488;2022-11-18T01:53:36;93667.25;;;11.14;69.33
1029;BME280;503;48.120;11.488;2022-11-18T01:56:06;93669.34;;;10.77;69.26
1029;BME280;503;48.120;11.488;2022-11-18T01:58:34;93668.47;;;11.17;69.08
1029;BME280;503;48.120;11.488;2022-11-18T02:01:01;93679.97;;;11.53;67.94
1029;BME280;503;48.120;11.488;2022-11-18T02:03:27;93675.03;;;11.70;67.43
1029;BME280;503;48.120;11.488;2022-11-18T02:05:53;93678.97;;;11.92;66.68
1029;BME280;503;48.120;11.488;2022-11-18T02:08:18;93680.06;;;12.07;66.65
1029;BME280;503;48.120;11.488;2022-11-18T02:10:44;93679.66;;;12.05;65.95
1029;BME280;503;48.120;11.488;2022-11-18T02:13:10;93678.38;;;12.34;65.87
1029;BME280;503;48.120;11.488;2022-11-18T02:15:44;93673.09;;;12.38;65.59
1029;BME280;503;48.120;11.488;2022-11-18T02:18:35;93668.50;;;12.38;65.07
1029;BME280;503;48.120;11.488;2022-11-18T02:21:00;93664.88;;;12.46;64.83
1029;BME280;503;48.120;11.488;2022-11-18T02:30:58;93664.47;;;12.44;65.18
1029;BME280;503;48.120;11.488;2022-11-18T02:36:06;93661.09;;;12.67;64.67
1029;BME280;503;48.120;11.488;2022-11-18T02:38:36;93657.72;;;12.70;64.48
1029;BME280;503;48.120;11.488;2022-11-18T02:41:05;93660.09;;;12.75;64.15
1029;BME280;503;48.120;11.488;2022-11-18T02:43:33;93656.72;;;12.78;63.79
1029;BME280;503;48.120;11.488;2022-11-18T02:46:01;93652.50;;;12.77;63.62
1029;BME280;503;48.120;11.488;2022-11-18T02:48:28;93624.66;;;12.55;63.49
1029;BME280;503;48.120;11.488;2022-11-18T02:50:54;93659.94;;;12.68;63.33
1029;BME280;503;48.120;11.488;2022-11-18T02:53:21;93657.25;;;12.64;63.73
1029;BME280;503;48.120;11.488;2022-11-18T02:55:48;93660.03;;;12.52;63.56
1029;BME280;503;48.120;11.488;2022-11-18T02:58:14;93656.31;;;12.57;64.46
1029;BME280;503;48.120;11.488;2022-11-18T03:00:40;93655.47;;;12.33;64.63
1029;BME280;503;48.120;11.488;2022-11-18T03:06:10;93656.81;;;12.43;64.65
1029;BME280;503;48.120;11.488;2022-11-18T03:11:24;93659.56;;;11.92;65.23
1029;BME280;503;48.120;11.488;2022-11-18T03:16:28;93659.19;;;11.11;68.83
1029;BME280;503;48.120;11.488;2022-11-18T03:18:58;93666.31;;;11.38;68.36
1029;BME280;503;48.120;11.488;2022-11-18T03:24:08;93666.22;;;11.51;68.35
1029;BME280;503;48.120;11.488;2022-11-18T03:26:38;93665.44;;;11.50;68.59
1029;BME280;503;48.120;11.488;2022-11-18T03:29:17;93665.28;;;11.43;68.81
1029;BME280;503;48.120;11.488;2022-11-18T03:31:47;93673.78;;;11.49;69.02
1029;BME280;503;48.120;11.488;2022-11-18T03:36:40;93681.06;;;11.04;70.51
1029;BME280;503;48.120;11.488;2022-11-18T03:39:06;93687.09;;;11.01;70.08
1029;BME280;503;48.120;11.488;2022-11-18T03:41:35;93685.94;;;10.86;70.62
1029;BME280;503;48.120;11.488;2022-11-18T03:44:06;93692.56;;;11.08;70.75
1029;BME280;503;48.120;11.488;2022-11-18T03:46:38;93700.72;;;11.00;71.23
1029;BME280;503;48.120;11.488;2022-11-18T03:49:06;93709.84;;;10.71;72.74
1029;BME280;503;48.120;11.488;2022-11-18T03:51:48;93713.59;;;10.41;73.01
1029;BME280;503;48.120;11.488;2022-11-18T03:54:16;93722.53;;;9.72;76.09
1029;BME280;503;48.120;11.488;2022-11-18T03:56:45;93725.72;;;9.90;75.99
1029;BME280;503;48.120;11.488;2022-11-18T03:59:14;93731.59;;;9.59;76.51
1029;BME280;503;48.120;11.488;2022-11-18T04:01:45;93732.81;;;9.61;77.70
1029;BME280;503;48.120;11.488;2022-11-18T04:04:11;93729.34;;;9.36;78.13
1029;BME280;503;48.120;11.488;2022-11-18T04:06:40;93728.94;;;9.59;77.28
1029;BME280;503;48.120;11.488;2022-11-18T04:09:12;93724.72;;;9.33;77.67
1029;BME280;503;48.120;11.488;2022-11-18T04:11:43;93725.94;;;9.24;78.99
1029;BME280;503;48.120;11.488;2022-11-18T04:14:28;93722.53;;;9.60;77.31
1029;BME280;503;48.120;11.488;2022-11-18T04:16:54;93715.38;;;9.03;78.03
1029;BME280;503;48.120;11.488;2022-11-18T04:19:19;93725.72;;;9.66;76.76
1029;BME280;503;48.120;11.488;2022-11-18T04:21:45;93726.38;;;9.87;75.87
1029;BME280;503;48.120;11.488;2022-11-18T04:24:11;93725.75;;;10.43;75.30
1029;BME280;503;48.120;11.488;2022-11-18T04:26:37;93717.66;;;10.79;75.69
1029;BME280;503;48.120;11.488;2022-11-18T04:29:02;93714.88;;;11.04;75.74
1029;BME280;503;48.120;11.488;2022-11-18T04:31:27;93716.53;;;11.08;75.23
1029;BME280;503;48.120;11.488;2022-11-18T04:33:52;93718.84;;;11.10;73.71
1029;BME280;503;48.120;11.488;2022-11-18T04:36:17;93712.25;;;11.19;73.85
1029;BME280;503;48.120;11.488;2022-11-18T04:38:43;93722.06;;;11.31;73.69
1029;BME280;503;48.120;11.488;2022-11-18T04:41:09;93721.47;;;11.38;74.06
1029;BME280;503;48.120;11.488;2022-11-18T04:43:34;93715.53;;;11.44;73.84
1029;BME280;503;48.120;11.488;2022-11-18T04:45:59;93710.66;;;11.47;73.51
1029;BME280;503;48.120;11.488;2022-11-18T04:48:24;93709.69;;;11.55;74.31
1029;BME280;503;48.120;11.488;2022-11-18T04:50:49;93716.22;;;11.41;73.38
1029;BME280;503;48.120;11.488;2022-11-18T04:53:15;93714.50;;;11.49;73.35
1029;BME280;503;48.120;11.488;2022-11-18T04:55:40;93707.97;;;11.47;72.87
1029;BME280;503;48.120;11.488;2022-11-18T04:58:05;93714.06;;;11.47;73.05
1029;BME280;503;48.120;11.488;2022-11-18T05:00:30;93709.53;;;11.48;72.26
1029;BME280;503;48.120;11.488;2022-11-18T05:02:56;93703.59;;;11.38;72.71
1029;BME280;503;48.120;11.488;2022-11-18T05:05:21;93714.50;;;11.33;72.94
1029;BME280;503;48.120;11.488;2022-11-18T05:07:46;93712.34;;;11.23;71.54
1029;BME280;503;48.120;11.488;2022-11-18T05:10:12;93712.25;;;11.35;71.98
1029;BME280;503;48.120;11.488;2022-11-18T05:12:37;93706.75;;;11.28;71.78
1029;BME280;503;48.120;11.488;2022-11-18T05:15:16;93716.28;;;11.29;72.48
1029;BME280;503;48.120;11.488;2022-11-18T05:17:42;93713.75;;;10.61;71.87
1029;BME280;503;48.120;11.488;2022-11-18T05:20:07;93709.72;;;10.95;72.68
1029;BME280;503;48.120;11.488;2022-11-18T05:22:33;93702.28;;;11.01;72.59
1029;BME280;503;48.120;11.488;2022-11-18T05:24:58;93700.91;;;11.07;71.55
1029;BME280;503;48.120;11.488;2022-11-18T05:27:24;93704.31;;;10.91;71.64
1029;BME280;503;48.120;11.488;2022-11-18T05:29:49;93705.75;;;10.89;71.73
1029;BME280;503;48.120;11.488;2022-11-18T05:32:15;93710.69;;;10.75;71.32
1029;BME280;503;48.120;11.488;2022-11-18T05:34:40;93715.47;;;10.69;71.81
1029;BME280;503;48.120;11.488;2022-11-18T05:37:06;93708.88;;;10.63;71.69
1029;BME280;503;48.120;11.488;2022-11-18T05:39:31;93706.78;;;10.56;71.48
1029;BME280;503;48.120;11.488;2022-11-18T05:41:58;93711.59;;;10.38;72.08
1029;BME280;503;48.120;11.488;2022-11-18T05:44:41;93716.91;;;10.51;71.97
1029;BME280;503;48.120;11.488;2022-11-18T05:47:07;93710.88;;;10.13;71.94
1029;BME280;503;48.120;11.488;2022-11-18T05:49:32;93715.56;;;9.80;73.10
1029;BME280;503;48.120;11.488;2022-11-18T05:51:57;93718.97;;;9.80;73.00
1029;BME280;503;48.120;11.488;2022-11-18T05:54:23;93719.31;;;9.79;73.32
1029;BME280;503;48.120;11.488;2022-11-18T05:56:48;93731.84;;;9.78;72.98
1029;BME280;503;48.120;11.488;2022-11-18T05:59:13;93733.78;;;9.45;72.31
1029;BME280;503;48.120;11.488;2022-11-18T06:04:06;93743.97;;;9.92;72.02
1029;BME280;503;48.120;11.488;2022-11-18T06:06:33;93742.22;;;9.83;72.15
1029;BME280;503;48.120;11.488;2022-11-18T06:09:00;93742.84;;;9.31;73.00
1029;BME280;503;48.120;11.488;2022-11-18T06:11:26;93744.72;;;9.19;72.96
1029;BME280;503;48.120;11.488;2022-11-18T06:13:54;93742.41;;;9.42;72.24
1029;BME280;503;48.120;11.488;2022-11-18T06:16:21;93752.16;;;9.37;72.70
1029;BME280;503;48.120;11.488;2022-11-18T06:18:48;93746.00;;;9.58;73.14
1029;BME280;503;48.120;11.488;2022-11-18T06:21:13;93757.75;;;9.24;72.18
1029;BME280;503;48.120;11.488;2022-11-18T06:23:39;93762.44;;;9.51;71.82
1029;BME280;503;48.120;11.488;2022-11-18T06:26:05;93764.75;;;9.41;72.62
1029;BME280;503;48.120;11.488;2022-11-18T06:28:31;93762.53;;;9.30;71.95
1029;BME280;503;48.120;11.488;2022-11-18T06:30:56;93776.56;;;8.85;73.66
1029;BME280;503;48.120;11.488;2022-11-18T06:33:22;93779.38;;;9.01;74.67
1029;BME280;503;48.120;11.488;2022-11-18T06:35:48;93781.63;;;9.11;74.77
1029;BME280;503;48.120;11.488;2022-11-18T06:38:13;93794.13;;;8.69;76.97
1029;BME280;503;48.120;11.488;2022-11-18T06:40:38;93798.47;;;8.74;76.83
1029;BME280;503;48.120;11.488;2022-11-18T06:43:07;93785.53;;;8.93;76.04
1029;BME280;503;48.120;11.488;2022-11-18T06:45:51;93789.28;;;8.92;74.76
1029;BME280;503;48.120;11.488;2022-11-18T06:48:35;93792.84;;;9.42;74.11
1029;BME280;503;48.120;11.488;2022-11-18T06:51:03;93817.75;;;8.62;76.09
1029;BME280;503;48.120;11.488;2022-11-18T06:53:28;93812.44;;;8.83;75.92
1029;BME280;503;48.120;11.488;2022-11-18T06:55:53;93812.53;;;9.41;74.02
1029;BME280;503;48.120;11.488;2022-11-18T06:58:18;93817.34;;;8.72;75.95
1029;BME280;503;48.120;11.488;2022-11-18T07:00:44;93815.09;;;8.62;77.20
1029;BME280;503;48.120;11.488;2022-11-18T07:03:09;93823.47;;;8.85;76.06
1029;BME280;503;48.120;11.488;2022-11-18T07:05:34;93830.56;;;8.60;76.48
1029;BME280;503;48.120;11.488;2022-11-18T07:07:59;93820.44;;;8.74;76.68
1029;BME280;503;48.120;11.488;2022-11-18T07:10:24;93823.81;;;8.83;76.29
1029;BME280;503;48.120;11.488;2022-11-18T07:12:50;93821.03;;;9.34;74.15
1029;BME280;503;48.120;11.488;2022-11-18T07:15:15;93823.38;;;8.81;75.84
1029;BME280;503;48.120;11.488;2022-11-18T07:17:40;93830.47;;;8.69;77.38
1029;BME280;503;48.120;11.488;2022-11-18T07:20:05;93843.28;;;8.46;77.56
1029;BME280;503;48.120;11.488;2022-11-18T07:22:31;93847.88;;;8.78;76.79
1029;BME280;503;48.120;11.488;2022-11-18T07:24:56;93848.72;;;8.91;76.95
1029;BME280;503;48.120;11.488;2022-11-18T07:27:21;93859.06;;;8.63;76.99
1029;BME280;503;48.120;11.488;2022-11-18T07:29:46;93869.84;;;9.00;76.10
1029;BME280;503;48.120;11.488;2022-11-18T07:32:11;93858.81;;;8.98;75.91
1029;BME280;503;48.120;11.488;2022-11-18T07:34:37;93867.28;;;9.12;76.18
1029;BME280;503;48.120;11.488;2022-11-18T07:37:02;93860.78;;;9.22;75.95
1029;BME280;503;48.120;11.488;2022-11-18T07:39:27;93871.03;;;9.11;75.98
1029;BME280;503;48.120;11.488;2022-11-18T07:41:52;93869.13;;;9.32;76.35
1029;BME280;503;48.120;11.488;2022-11-18T07:44:18;93862.22;;;9.19;78.57
1029;BME280;503;48.120;11.488;2022-11-18T07:46:43;93860.84;;;9.92;76.13
1029;BME280;503;48.120;11.488;2022-11-18T07:49:09;93860.75;;;9.88;74.63
1029;BME280;503;48.120;11.488;2022-11-18T07:51:36;93874.97;;;9.59;75.59
1029;BME280;503;48.120;11.488;2022-11-18T07:54:08;93873.78;;;9.69;73.47
1029;BME280;503;48.120;11.488;2022-11-18T07:56:34;93874.81;;;9.55;73.55
1029;BME280;503;48.120;11.488;2022-11-18T07:58:59;93872.69;;;8.95;75.89
1029;BME280;503;48.120;11.488;2022-11-18T08:01:24;93869.41;;;9.19;75.11
1029;BME280;503;48.120;11.488;2022-11-18T08:03:52;93879.56;;;9.17;75.08
1029;BME280;503;48.120;11.488;2022-11-18T08:06:18;93884.53;;;9.51;73.42
1029;BME280;503;48.120;11.488;2022-11-18T08:08:43;93887.38;;;9.34;74.05
1029;BME280;503;48.120;11.488;2022-11-18T08:11:09;93891.03;;;9.42;74.61
1029;BME280;503;48.120;11.488;2022-11-18T08:13:35;93891.94;;;8.92;75.50
1029;BME280;503;48.120;11.488;2022-11-18T08:16:00;93884.59;;;9.30;75.12
1029;BME280;503;48.120;11.488;2022-11-18T08:18:27;93889.72;;;8.73;76.58
1029;BME280;503;48.120;11.488;2022-11-18T08:20:52;93892.56;;;9.09;75.57
1029;BME280;503;48.120;11.488;2022-11-18T08:23:17;93897.28;;;9.04;75.90
1029;BME280;503;48.120;11.488;2022-11-18T08:25:43;93904.41;;;9.12;75.98
1029;BME280;503;48.120;11.488;2022-11-18T08:28:09;93906.16;;;8.87;77.49
1029;BME280;503;48.120;11.488;2022-11-18T08:30:36;93906.69;;;8.51;77.86
1029;BME280;503;48.120;11.488;2022-11-18T08:33:02;93910.59;;;8.74;77.28
1029;BME280;503;48.120;11.488;2022-11-18T08:35:28;93909.22;;;8.68;77.60
1029;BME280;503;48.120;11.488;2022-11-18T08:37:55;93914.34;;;8.44;79.26
1029;BME280;503;48.120;11.488;2022-11-18T08:40:20;93919.63;;;8.52;78.88
1029;BME280;503;48.120;11.488;2022-11-18T08:42:46;93918.34;;;8.79;78.42
1029;BME280;503;48.120;11.488;2022-11-18T08:45:11;93921.56;;;8.64;79.60
1029;BME280;503;48.120;11.488;2022-11-18T08:47:36;93911.31;;;9.25;76.28
1029;BME280;503;48.120;11.488;2022-11-18T08:50:03;93914.84;;;9.17;77.15
1029;BME280;503;48.120;11.488;2022-11-18T08:52:29;93922.25;;;8.82;78.08
1029;BME280;503;48.120;11.488;2022-11-18T08:54:54;93932.75;;;9.20;76.11
1029;BME280;503;48.120;11.488;2022-11-18T08:57:19;93924.84;;;9.32;75.25
1029;BME280;503;48.120;11.488;2022-11-18T08:59:45;93938.41;;;8.89;76.50
1029;BME280;503;48.120;11.488;2022-11-18T09:02:17;93926.84;;;9.35;75.78
1029;BME280;503;48.120;11.488;2022-11-18T09:04:42;93937.72;;;9.43;74.65
1029;BME280;503;48.120;11.488;2022-11-18T09:07:08;93934.66;;;8.90;76.84
1029;BME280;503;48.120;11.488;2022-11-18T09:09:33;93934.44;;;8.74;77.58
1029;BME280;503;48.120;11.488;2022-11-18T09:11:59;93936.63;;;8.81;77.59
1029;BME280;503;48.120;11.488;2022-11-18T09:14:24;93943.94;;;9.05;76.70
1029;BME280;503;48.120;11.488;2022-11-18T09:16:49;93933.41;;;8.96;77.04
1029;BME280;503;48.120;11.488;2022-11-18T09:19:15;93945.88;;;8.96;77.63
1029;BME280;503;48.120;11.488;2022-11-18T09:21:40;93946.56;;;9.05;75.89
1029;BME280;503;48.120;11.488;2022-11-18T09:24:06;93941.84;;;9.31;75.78
1029;BME280;503;48.120;11.488;2022-11-18T09:26:31;93956.00;;;8.73;77.67
1029;BME280;503;48.120;11.488;2022-11-18T09:28:56;93958.34;;;8.95;77.68
1029;BME280;503;48.120;11.488;2022-11-18T09:31:22;93959.66;;;9.10;76.70
1029;BME280;503;48.120;11.488;2022-11-18T09:33:47;93966.19;;;9.13;77.05
1029;BME280;503;48.120;11.488;2022-11-18T09:36:19;93970.03;;;8.73;77.83
1029;BME280;503;48.120;11.488;2022-11-18T09:38:45;93972.31;;;8.83;77.71
1029;BME280;503;48.120;11.488;2022-11-18T09:46:30;93978.97;;;8.90;78.69
1029;BME280;503;48.120;11.488;2022-11-18T09:48:59;93948.94;;;9.27;77.68
1029;BME280;503;48.120;11.488;2022-11-18T09:51:42;93983.66;;;8.93;78.90
1029;BME280;503;48.120;11.488;2022-11-18T09:54:14;93992.91;;;8.48;79.44
1029;BME280;503;48.120;11.488;2022-11-18T09:56:44;93987.38;;;8.62;79.94
1029;BME280;503;48.120;11.488;2022-11-18T09:59:10;93981.41;;;8.36;80.47
1029;BME280;503;48.120;11.488;2022-11-18T10:01:36;93995.84;;;8.55;79.86
1029;BME280;503;48.120;11.488;2022-11-18T10:04:02;93990.53;;;7.91;81.82
1029;BME280;503;48.120;11.488;2022-11-18T10:06:27;93995.59;;;8.22;80.61
1029;BME280;503;48.120;11.488;2022-11-18T10:09:03;93986.03;;;8.47;80.48
1029;BME280;503;48.120;11.488;2022-11-18T10:11:38;93997.53;;;8.04;81.37
1029;BME280;503;48.120;11.488;2022-11-18T10:14:09;94000.31;;;8.08;81.28
1029;BME280;503;48.120;11.488;2022-11-18T10:24:18;94000.28;;;8.72;78.78
1029;BME280;503;48.120;11.488;2022-11-18T10:26:44;94007.56;;;8.84;79.27
1029;BME280;503;48.120;11.488;2022-11-18T10:29:09;94001.75;;;8.61;80.23
1029;BME280;503;48.120;11.488;2022-11-18T10:34:19;93988.25;;;8.75;80.43
1029;BME280;503;48.120;11.488;2022-11-18T10:36:56;93987.94;;;8.76;80.17
1029;BME280;503;48.120;11.488;2022-11-18T10:39:22;93988.22;;;8.83;79.19
1029;BME280;503;48.120;11.488;2022-11-18T10:41:48;93987.44;;;8.83;78.60
1029;BME280;503;48.120;11.488;2022-11-18T10:44:30;93992.78;;;8.45;79.99
1029;BME280;503;48.120;11.488;2022-11-18T10:47:13;93999.69;;;8.67;79.94
1029;BME280;503;48.120;11.488;2022-11-18T10:49:39;93994.16;;;8.42;80.73
1029;BME280;503;48.120;11.488;2022-11-18T10:52:08;93994.88;;;8.04;80.94
1029;BME280;503;48.120;11.488;2022-11-18T10:54:37;93998.56;;;8.29;81.63
1029;BME280;503;48.120;11.488;2022-11-18T10:57:20;94015.69;;;8.32;80.89
1029;BME280;503;48.120;11.488;2022-11-18T10:59:48;94012.72;;;8.33;82.24
1029;BME280;503;48.120;11.488;2022-11-18T11:04:40;94007.03;;;8.14;83.47
1029;BME280;503;48.120;11.488;2022-11-18T11:12:40;93988.41;;;8.31;81.75
1029;BME280;503;48.120;11.488;2022-11-18T11:15:18;93987.50;;;8.27;82.45
1029;BME280;503;48.120;11.488;2022-11-18T11:17:47;93982.34;;;8.31;82.16
1029;BME280;503;48.120;11.488;2022-11-18T11:20:34;93981.84;;;8.46;81.66
1029;BME280;503;48.120;11.488;2022-11-18T11:22:59;93980.84;;;8.89;81.24
1029;BME280;503;48.120;11.488;2022-11-18T11:25:41;93997.53;;;8.60;81.11
1029;BME280;503;48.120;11.488;2022-11-18T11:33:55;93994.56;;;7.97;83.68
1029;BME280;503;48.120;11.488;2022-11-18T11:36:46;94005.91;;;8.15;83.80
1029;BME280;503;48.120;11.488;2022-11-18T11:44:39;94007.22;;;7.92;84.84
1029;BME280;503;48.120;11.488;2022-11-18T11:50:18;94005.84;;;8.32;85.13
1029;BME280;503;48.120;11.488;2022-11-18T11:52:56;94014.50;;;8.03;85.67
1029;BME280;503;48.120;11.488;2022-11-18T11:55:44;94013.63;;;8.55;84.89
1029;BME280;503;48.120;11.488;2022-11-18T11:58:23;94007.59;;;8.28;85.26
1029;BME280;503;48.120;11.488;2022-11-18T12:00:57;94014.81;;;8.11;86.06
1029;BME280;503;48.120;11.488;2022-11-18T12:06:10;94017.72;;;8.26;85.91
1029;BME280;503;48.120;11.488;2022-11-18T12:08:35;94012.41;;;8.44;85.17
1029;BME280;503;48.120;11.488;2022-11-18T12:26:45;94034.94;;;7.86;84.75
1029;BME280;503;48.120;11.488;2022-11-18T12:29:56;94030.91;;;7.71;84.91
1029;BME280;503;48.120;11.488;2022-11-18T12:31:56;94035.34;;;8.31;83.24
1029;BME280;503;48.120;11.488;2022-11-18T12:36:50;94038.69;;;7.85;83.93
1029;BME280;503;48.120;11.488;2022-11-18T12:41:57;94052.25;;;7.74;83.95
1029;BME280;503;48.120;11.488;2022-11-18T12:44:41;94048.25;;;8.24;83.16
1029;BME280;503;48.120;11.488;2022-11-18T12:47:14;94051.13;;;7.75;84.50
1029;BME280;503;48.120;11.488;2022-11-18T12:55:15;94060.78;;;7.54;84.26
1029;BME280;503;48.120;11.488;2022-11-18T12:57:42;94074.44;;;7.30;86.00
1029;BME280;503;48.120;11.488;2022-11-18T13:02:55;94068.56;;;8.11;82.58
1029;BME280;503;48.120;11.488;2022-11-18T13:05:21;94068.09;;;8.00;81.97
1029;BME280;503;48.120;11.488;2022-11-18T13:07:51;94063.53;;;8.91;79.80
1029;BME280;503;48.120;11.488;2022-11-18T13:10:38;94066.19;;;8.36;80.92
1029;BME280;503;48.120;11.488;2022-11-18T13:13:04;94072.94;;;9.09;78.47
1029;BME280;503;48.120;11.488;2022-11-18T13:15:40;94080.22;;;8.27;80.77
1029;BME280;503;48.120;11.488;2022-11-18T13:18:24;94072.28;;;8.83;79.49
1029;BME280;503;48.120;11.488;2022-11-18T13:20:57;94077.78;;;8.69;79.39
1029;BME280;503;48.120;11.488;2022-11-18T13:23:27;94081.03;;;8.75;79.80
1029;BME280;503;48.120;11.488;2022-11-18T13:26:17;94079.75;;;9.19;78.20
1029;BME280;503;48.120;11.488;2022-11-18T13:28:44;94080.94;;;8.63;80.10
1029;BME280;503;48.120;11.488;2022-11-18T13:31:14;94086.84;;;8.68;79.42
1029;BME280;503;48.120;11.488;2022-11-18T13:33:41;94079.19;;;9.14;78.82
1029;BME280;503;48.120;11.488;2022-11-18T13:36:23;94085.34;;;9.26;77.90
1029;BME280;503;48.120;11.488;2022-11-18T13:38:55;94093.41;;;8.62;79.57
1029;BME280;503;48.120;11.488;2022-11-18T13:41:21;94089.81;;;9.34;78.16
1029;BME280;503;48.120;11.488;2022-11-18T13:43:48;94086.84;;;8.68;79.70
1029;BME280;503;48.120;11.488;2022-11-18T13:46:15;94076.78;;;9.21;77.80
1029;BME280;503;48.120;11.488;2022-11-18T13:48:48;94078.66;;;8.91;79.55
1029;BME280;503;48.120;11.488;2022-11-18T13:51:16;94089.63;;;9.40;78.10
1029;BME280;503;48.120;11.488;2022-11-18T13:53:42;94089.53;;;9.57;77.58
1029;BME280;503;48.120;11.488;2022-11-18T13:56:18;94091.09;;;9.58;77.29
1029;BME280;503;48.120;11.488;2022-11-18T13:58:50;94087.56;;;9.45;77.55
1029;BME280;503;48.120;11.488;2022-11-18T14:03:47;94089.28;;;9.71;75.87
1029;BME280;503;48.120;11.488;2022-11-18T14:11:34;94091.41;;;9.56;77.07
1029;BME280;503;48.120;11.488;2022-11-18T14:13:59;94092.00;;;9.62;75.77
1029;BME280;503;48.120;11.488;2022-11-18T14:18:53;94091.06;;;10.21;75.80
1029;BME280;503;48.120;11.488;2022-11-18T14:21:31;94111.88;;;9.56;76.26
1029;BME280;503;48.120;11.488;2022-11-18T14:23:57;94111.31;;;9.92;75.27
1029;BME280;503;48.120;11.488;2022-11-18T14:26:30;94104.25;;;9.96;76.30
1029;BME280;503;48.120;11.488;2022-11-18T14:28:56;94107.81;;;9.79;75.86
1029;BME280;503;48.120;11.488;2022-11-18T14:31:26;94102.91;;;9.90;75.06
1029;BME280;503;48.120;11.488;2022-11-18T14:36:35;94111.47;;;9.45;78.18
1029;BME280;503;48.120;11.488;2022-11-18T14:39:01;94102.97;;;9.52;77.74
1029;BME280;503;48.120;11.488;2022-11-18T14:41:35;94110.19;;;9.22;78.31
1029;BME280;503;48.120;11.488;2022-11-18T14:44:13;94125.31;;;8.83;79.60
1029;BME280;503;48.120;11.488;2022-11-18T14:46:39;94129.19;;;9.32;78.40
1029;BME280;503;48.120;11.488;2022-11-18T14:49:05;94125.75;;;9.32;79.14
1029;BME280;503;48.120;11.488;2022-11-18T14:51:34;94133.47;;;9.46;78.54
1029;BME280;503;48.120;11.488;2022-11-18T14:53:59;94130.19;;;9.10;78.92
1029;BME280;503;48.120;11.488;2022-11-18T14:56:25;94132.06;;;8.63;79.57
1029;BME280;503;48.120;11.488;2022-11-18T14:58:51;94141.34;;;8.40;80.63
1029;BME280;503;48.120;11.488;2022-11-18T15:01:16;94145.88;;;8.95;79.94
1029;BME280;503;48.120;11.488;2022-11-18T15:03:42;94139.59;;;8.61;79.57
1029;BME280;503;48.120;11.488;2022-11-18T15:06:14;94153.94;;;8.43;79.85
1029;BME280;503;48.120;11.488;2022-11-18T15:08:40;94153.72;;;8.82;78.41
1029;BME280;503;48.120;11.488;2022-11-18T15:11:06;94154.25;;;9.05;77.75
1029;BME280;503;48.120;11.488;2022-11-18T15:13:31;94147.47;;;9.55;76.46
1029;BME280;503;48.120;11.488;2022-11-18T15:15:56;94157.44;;;9.87;75.14
1029;BME280;503;48.120;11.488;2022-11-18T15:18:22;94160.38;;;9.65;74.26
1029;BME280;503;48.120;11.488;2022-11-18T15:20:49;94163.34;;;9.93;73.72
1029;BME280;503;48.120;11.488;2022-11-18T15:23:14;94159.06;;;9.50;74.19
1029;BME280;503;48.120;11.488;2022-11-18T15:25:39;94164.66;;;8.72;76.84